createdAt,value
2017-11-10T00:00:38.876Z,1012.77
2017-11-10T00:01:38.899Z,1012.7
2017-11-10T00:02:38.912Z,1012.71
2017-11-10T00:03:38.930Z,1012.7
2017-11-10T00:04:38.951Z,1012.68
2017-11-10T00:05:38.967Z,1012.66
2017-11-10T00:06:38.987Z,1012.63
2017-11-10T00:08:39.022Z,1012.66
2017-11-10T00:09:39.037Z,1012.69
2017-11-10T00:10:39.055Z,1012.66
2017-11-10T00:11:39.081Z,1012.62
2017-11-10T00:12:39.090Z,1012.65
2017-11-10T00:13:39.109Z,1012.63
2017-11-10T00:14:39.130Z,1012.63
2017-11-10T00:15:39.145Z,1012.62
2017-11-10T00:16:39.164Z,1012.67
2017-11-10T00:17:39.180Z,1012.64
2017-11-10T00:18:39.199Z,1012.63
2017-11-10T00:19:39.220Z,1012.62
2017-11-10T00:20:39.239Z,1012.63
2017-11-10T00:21:39.253Z,1012.63
2017-11-10T00:23:39.292Z,1012.61
2017-11-10T00:24:39.307Z,1012.61
2017-11-10T00:25:39.329Z,1012.61
2017-11-10T00:26:39.342Z,1012.58
2017-11-10T00:27:39.361Z,1012.61
2017-11-10T00:28:39.385Z,1012.57
2017-11-10T00:29:39.400Z,1012.51
2017-11-10T00:30:39.416Z,1012.57
2017-11-10T00:31:39.434Z,1012.58
2017-11-10T00:32:39.450Z,1012.61
2017-11-10T00:33:39.468Z,1012.58
2017-11-10T00:34:39.490Z,1012.6
2017-11-10T00:35:39.504Z,1012.6
2017-11-10T00:36:39.526Z,1012.57
2017-11-10T00:37:39.544Z,1012.6
2017-11-10T00:38:39.559Z,1012.61
2017-11-10T00:39:39.580Z,1012.57
2017-11-10T00:40:39.598Z,1012.56
2017-11-10T00:41:39.613Z,1012.58
2017-11-10T00:42:39.634Z,1012.59
2017-11-10T00:43:39.652Z,1012.55
2017-11-10T00:44:39.671Z,1012.55
2017-11-10T00:45:39.685Z,1012.6
2017-11-10T00:46:39.709Z,1012.64
2017-11-10T00:47:39.724Z,1012.65
2017-11-10T00:48:39.766Z,1012.58
2017-11-10T00:49:39.761Z,1012.63
2017-11-10T00:50:39.777Z,1012.63
2017-11-10T00:51:39.793Z,1012.64
2017-11-10T00:52:39.814Z,1012.57
2017-11-10T00:53:39.828Z,1012.61
2017-11-10T00:55:39.866Z,1012.62
2017-11-10T00:56:39.885Z,1012.62
2017-11-10T00:57:39.904Z,1012.59
2017-11-10T00:58:39.921Z,1012.6
2017-11-10T00:59:39.937Z,1012.61
2017-11-10T01:00:39.955Z,1012.53
2017-11-10T01:01:39.972Z,1012.52
2017-11-10T01:02:39.997Z,1012.5
2017-11-10T01:03:40.014Z,1012.47
2017-11-10T01:04:40.028Z,1012.43
2017-11-10T01:05:40.048Z,1012.43
2017-11-10T01:06:40.066Z,1012.45
2017-11-10T01:07:40.081Z,1012.46
2017-11-10T01:08:40.098Z,1012.44
2017-11-10T01:09:40.120Z,1012.42
2017-11-10T01:11:40.156Z,1012.39
2017-11-10T01:12:40.174Z,1012.39
2017-11-10T01:13:40.191Z,1012.34
2017-11-10T01:14:40.210Z,1012.37
2017-11-10T01:15:40.226Z,1012.36
2017-11-10T01:16:40.242Z,1012.33
2017-11-10T01:17:40.260Z,1012.35
2017-11-10T01:18:40.283Z,1012.32
2017-11-10T01:19:40.299Z,1012.35
2017-11-10T01:20:40.313Z,1012.31
2017-11-10T01:21:40.338Z,1012.32
2017-11-10T01:22:40.354Z,1012.29
2017-11-10T01:23:40.371Z,1012.27
2017-11-10T01:24:40.389Z,1012.26
2017-11-10T01:25:40.408Z,1012.25
2017-11-10T01:27:40.439Z,1012.26
2017-11-10T01:28:40.462Z,1012.27
2017-11-10T01:29:40.481Z,1012.22
2017-11-10T01:30:40.494Z,1012.22
2017-11-10T01:31:40.512Z,1012.19
2017-11-10T01:32:40.530Z,1012.19
2017-11-10T01:33:40.550Z,1012.18
2017-11-10T01:34:40.566Z,1012.19
2017-11-10T01:35:40.587Z,1012.12
2017-11-10T01:36:40.604Z,1012.19
2017-11-10T01:37:40.624Z,1012.13
2017-11-10T01:38:40.642Z,1012.16
2017-11-10T01:39:40.657Z,1012.21
2017-11-10T01:40:40.679Z,1012.18
2017-11-10T01:41:40.696Z,1012.14
2017-11-10T01:43:40.728Z,1012.1
2017-11-10T01:44:40.747Z,1012.04
2017-11-10T01:45:40.772Z,1012.01
2017-11-10T01:46:40.792Z,1012.04
2017-11-10T01:47:40.803Z,1011.97
2017-11-10T01:48:40.821Z,1012.01
2017-11-10T01:49:40.838Z,1012.02
2017-11-10T01:50:40.856Z,1012.02
2017-11-10T01:51:40.876Z,1012.02
2017-11-10T01:52:40.893Z,1011.93
2017-11-10T01:53:40.907Z,1011.95
2017-11-10T01:54:40.925Z,1011.96
2017-11-10T01:55:40.943Z,1011.96
2017-11-10T01:56:40.964Z,1011.94
2017-11-10T01:58:40.998Z,1011.87
2017-11-10T01:59:41.015Z,1011.88
2017-11-10T02:00:41.034Z,1011.8
2017-11-10T02:01:41.055Z,1011.77
2017-11-10T02:02:41.070Z,1011.75
2017-11-10T02:03:41.089Z,1011.67
2017-11-10T02:04:41.105Z,1011.65
2017-11-10T02:05:41.123Z,1011.69
2017-11-10T02:06:41.141Z,1011.66
2017-11-10T02:07:41.163Z,1011.63
2017-11-10T02:08:41.187Z,1011.6
2017-11-10T02:09:41.222Z,1011.58
2017-11-10T02:10:41.215Z,1011.57
2017-11-10T02:11:41.230Z,1011.61
2017-11-10T02:12:41.251Z,1011.62
2017-11-10T02:13:41.270Z,1011.57
2017-11-10T02:14:41.289Z,1011.55
2017-11-10T02:15:41.305Z,1011.53
2017-11-10T02:16:41.323Z,1011.52
2017-11-10T02:17:41.341Z,1011.42
2017-11-10T02:18:41.357Z,1011.48
2017-11-10T02:19:41.380Z,1011.46
2017-11-10T02:20:41.391Z,1011.5
2017-11-10T02:21:41.413Z,1011.49
2017-11-10T02:22:41.429Z,1011.47
2017-11-10T02:23:41.448Z,1011.47
2017-11-10T02:24:41.462Z,1011.4
2017-11-10T02:25:41.480Z,1011.42
2017-11-10T02:26:41.502Z,1011.38
2017-11-10T02:27:41.518Z,1011.37
2017-11-10T02:28:41.536Z,1011.34
2017-11-10T02:30:41.569Z,1011.26
2017-11-10T02:31:41.588Z,1011.28
2017-11-10T02:32:41.608Z,1011.25
2017-11-10T02:33:41.626Z,1011.23
2017-11-10T02:34:41.650Z,1011.22
2017-11-10T02:35:41.661Z,1011.19
2017-11-10T02:36:41.676Z,1011.18
2017-11-10T02:37:41.694Z,1011.21
2017-11-10T02:38:41.712Z,1011.24
2017-11-10T02:39:41.728Z,1011.23
2017-11-10T02:40:41.749Z,1011.22
2017-11-10T02:41:41.766Z,1011.28
2017-11-10T02:42:41.789Z,1011.25
2017-11-10T02:43:41.804Z,1011.29
2017-11-10T02:44:41.820Z,1011.23
2017-11-10T02:46:41.856Z,1011.2
2017-11-10T02:47:41.875Z,1011.23
2017-11-10T02:48:41.895Z,1011.26
2017-11-10T02:49:41.911Z,1011.22
2017-11-10T02:50:41.933Z,1011.21
2017-11-10T02:51:41.946Z,1011.15
2017-11-10T02:52:41.960Z,1011.19
2017-11-10T02:53:41.980Z,1011.15
2017-11-10T02:54:41.999Z,1011.13
2017-11-10T02:55:42.018Z,1011.14
2017-11-10T02:56:42.031Z,1011.08
2017-11-10T02:57:42.052Z,1011.1
2017-11-10T02:58:42.071Z,1011.02
2017-11-10T02:59:42.088Z,1010.97
2017-11-10T03:00:42.108Z,1011
2017-11-10T03:02:42.142Z,1010.97
2017-11-10T03:03:42.156Z,1010.99
2017-11-10T03:04:42.178Z,1010.99
2017-11-10T03:05:42.194Z,1010.99
2017-11-10T03:06:42.208Z,1010.99
2017-11-10T03:07:42.227Z,1010.96
2017-11-10T03:08:42.254Z,1010.96
2017-11-10T03:09:42.265Z,1010.94
2017-11-10T03:10:42.284Z,1010.9
2017-11-10T03:11:42.300Z,1010.89
2017-11-10T03:12:42.316Z,1010.83
2017-11-10T03:13:42.334Z,1010.83
2017-11-10T03:14:42.352Z,1010.82
2017-11-10T03:15:42.369Z,1010.75
2017-11-10T03:16:42.389Z,1010.74
2017-11-10T03:18:42.424Z,1010.65
2017-11-10T03:19:42.444Z,1010.64
2017-11-10T03:20:42.462Z,1010.6
2017-11-10T03:21:42.477Z,1010.6
2017-11-10T03:22:42.494Z,1010.59
2017-11-10T03:23:42.514Z,1010.59
2017-11-10T03:24:42.533Z,1010.55
2017-11-10T03:25:42.547Z,1010.55
2017-11-10T03:26:42.566Z,1010.57
2017-11-10T03:27:42.591Z,1010.55
2017-11-10T03:28:42.600Z,1010.54
2017-11-10T03:29:42.620Z,1010.54
2017-11-10T03:30:42.640Z,1010.52
2017-11-10T03:31:42.665Z,1010.48
2017-11-10T03:33:42.694Z,1010.45
2017-11-10T03:34:42.709Z,1010.52
2017-11-10T03:35:42.728Z,1010.5
2017-11-10T03:36:42.746Z,1010.52
2017-11-10T03:37:42.768Z,1010.51
2017-11-10T03:38:42.779Z,1010.5
2017-11-10T03:39:42.799Z,1010.49
2017-11-10T03:40:42.814Z,1010.46
2017-11-10T03:41:42.850Z,1010.5
2017-11-10T03:42:42.861Z,1010.49
2017-11-10T03:43:42.876Z,1010.48
2017-11-10T03:44:42.891Z,1010.5
2017-11-10T03:45:42.909Z,1010.48
2017-11-10T03:46:42.926Z,1010.47
2017-11-10T03:47:42.939Z,1010.44
2017-11-10T03:48:42.957Z,1010.47
2017-11-10T03:49:42.978Z,1010.46
2017-11-10T03:50:42.994Z,1010.43
2017-11-10T03:51:43.010Z,1010.45
2017-11-10T03:52:43.040Z,1010.39
2017-11-10T03:53:43.049Z,1010.43
2017-11-10T03:54:43.062Z,1010.43
2017-11-10T03:55:43.080Z,1010.42
2017-11-10T03:56:43.100Z,1010.42
2017-11-10T03:57:43.117Z,1010.42
2017-11-10T03:58:43.136Z,1010.41
2017-11-10T03:59:43.153Z,1010.38
2017-11-10T04:00:43.173Z,1010.34
2017-11-10T04:01:43.189Z,1010.35
2017-11-10T04:02:43.209Z,1010.3
2017-11-10T04:03:43.221Z,1010.34
2017-11-10T04:05:43.259Z,1010.34
2017-11-10T04:06:43.284Z,1010.27
2017-11-10T04:07:43.298Z,1010.31
2017-11-10T04:08:43.314Z,1010.26
2017-11-10T04:09:43.333Z,1010.26
2017-11-10T04:10:43.352Z,1010.3
2017-11-10T04:11:43.368Z,1010.34
2017-11-10T04:12:43.385Z,1010.31
2017-11-10T04:13:43.400Z,1010.32
2017-11-10T04:14:43.419Z,1010.36
2017-11-10T04:15:43.439Z,1010.32
2017-11-10T04:16:43.457Z,1010.33
2017-11-10T04:17:43.472Z,1010.29
2017-11-10T04:18:43.493Z,1010.3
2017-11-10T04:19:43.518Z,1010.28
2017-11-10T04:21:43.547Z,1010.25
2017-11-10T04:22:43.561Z,1010.26
2017-11-10T04:23:43.578Z,1010.24
2017-11-10T04:24:43.596Z,1010.24
2017-11-10T04:25:43.616Z,1010.24
2017-11-10T04:26:43.635Z,1010.25
2017-11-10T04:27:43.649Z,1010.24
2017-11-10T04:28:43.682Z,1010.25
2017-11-10T04:29:43.688Z,1010.3
2017-11-10T04:30:43.702Z,1010.28
2017-11-10T04:31:43.720Z,1010.23
2017-11-10T04:32:43.742Z,1010.18
2017-11-10T04:33:43.761Z,1010.22
2017-11-10T04:34:43.777Z,1010.19
2017-11-10T04:35:43.795Z,1010.19
2017-11-10T04:37:43.829Z,1010.14
2017-11-10T04:38:43.849Z,1010.12
2017-11-10T04:39:43.865Z,1010.08
2017-11-10T04:40:43.881Z,1010.06
2017-11-10T04:41:43.927Z,1010.03
2017-11-10T04:42:43.920Z,1010.01
2017-11-10T04:43:43.937Z,1009.96
2017-11-10T04:44:43.958Z,1009.96
2017-11-10T04:45:43.971Z,1009.97
2017-11-10T04:46:43.991Z,1010.01
2017-11-10T04:47:44.008Z,1010.01
2017-11-10T04:48:44.024Z,1009.97
2017-11-10T04:49:44.041Z,1010.03
2017-11-10T04:50:44.062Z,1010.11
2017-11-10T04:51:44.079Z,1010.16
2017-11-10T04:53:44.113Z,1010.19
2017-11-10T04:54:44.131Z,1010.17
2017-11-10T04:55:44.157Z,1010.14
2017-11-10T04:56:44.166Z,1010.18
2017-11-10T04:57:44.185Z,1010.11
2017-11-10T04:58:44.201Z,1010.17
2017-11-10T04:59:44.223Z,1010.13
2017-11-10T05:00:44.238Z,1010.06
2017-11-10T05:01:44.255Z,1010.1
2017-11-10T05:02:44.273Z,1010.08
2017-11-10T05:03:44.295Z,1010.1
2017-11-10T05:04:44.312Z,1010.08
2017-11-10T05:05:44.329Z,1010.04
2017-11-10T05:06:44.345Z,1010.05
2017-11-10T05:08:44.387Z,1010.11
2017-11-10T05:09:44.401Z,1010.08
2017-11-10T05:10:44.420Z,1010.08
2017-11-10T05:11:44.439Z,1010.08
2017-11-10T05:12:44.457Z,1010.06
2017-11-10T05:13:44.478Z,1010.07
2017-11-10T05:14:44.487Z,1010.04
2017-11-10T05:15:44.510Z,1010.05
2017-11-10T05:16:44.527Z,1010.03
2017-11-10T05:17:44.544Z,1009.98
2017-11-10T05:18:44.559Z,1009.98
2017-11-10T05:19:44.577Z,1009.97
2017-11-10T05:20:44.599Z,1010.04
2017-11-10T05:21:44.619Z,1009.98
2017-11-10T05:22:44.632Z,1009.98
2017-11-10T05:23:44.654Z,1009.94
2017-11-10T05:24:44.670Z,1009.95
2017-11-10T05:25:44.688Z,1009.9
2017-11-10T05:26:44.704Z,1009.92
2017-11-10T05:27:44.722Z,1009.94
2017-11-10T05:28:44.737Z,1009.94
2017-11-10T05:29:44.755Z,1009.89
2017-11-10T05:30:44.778Z,1009.91
2017-11-10T05:31:44.791Z,1009.92
2017-11-10T05:32:44.812Z,1009.91
2017-11-10T05:33:44.829Z,1009.91
2017-11-10T05:34:44.845Z,1009.88
2017-11-10T05:35:44.864Z,1009.89
2017-11-10T05:36:44.883Z,1009.88
2017-11-10T05:37:44.900Z,1009.88
2017-11-10T05:38:44.920Z,1009.88
2017-11-10T05:40:44.956Z,1009.86
2017-11-10T05:41:44.970Z,1009.9
2017-11-10T05:42:45.341Z,1009.91
2017-11-10T05:43:45.010Z,1009.92
2017-11-10T05:44:45.024Z,1009.88
2017-11-10T05:45:45.043Z,1009.89
2017-11-10T05:46:45.063Z,1009.9
2017-11-10T05:47:45.079Z,1009.94
2017-11-10T05:48:45.095Z,1009.91
2017-11-10T05:49:45.118Z,1009.94
2017-11-10T05:50:45.134Z,1009.91
2017-11-10T05:51:45.152Z,1009.88
2017-11-10T05:52:45.170Z,1009.91
2017-11-10T05:53:45.183Z,1009.89
2017-11-10T05:54:45.204Z,1009.9
2017-11-10T05:56:45.239Z,1009.85
2017-11-10T05:57:45.261Z,1009.89
2017-11-10T05:58:45.275Z,1009.86
2017-11-10T05:59:45.293Z,1009.89
2017-11-10T06:00:45.310Z,1009.82
2017-11-10T06:01:45.331Z,1009.85
2017-11-10T06:02:45.349Z,1009.91
2017-11-10T06:03:45.364Z,1009.84
2017-11-10T06:04:45.381Z,1009.91
2017-11-10T06:05:45.400Z,1009.78
2017-11-10T06:06:45.417Z,1009.81
2017-11-10T06:07:45.436Z,1009.81
2017-11-10T06:08:45.454Z,1009.8
2017-11-10T06:09:45.470Z,1009.74
2017-11-10T06:10:45.493Z,1009.77
2017-11-10T06:12:45.530Z,1009.79
2017-11-10T06:13:45.545Z,1009.8
2017-11-10T06:14:45.561Z,1009.78
2017-11-10T06:15:45.578Z,1009.76
2017-11-10T06:16:45.598Z,1009.72
2017-11-10T06:17:45.613Z,1009.71
2017-11-10T06:18:45.632Z,1009.76
2017-11-10T06:19:45.649Z,1009.7
2017-11-10T06:20:45.675Z,1009.76
2017-11-10T06:21:45.691Z,1009.74
2017-11-10T06:22:45.703Z,1009.67
2017-11-10T06:23:45.724Z,1009.68
2017-11-10T06:24:45.742Z,1009.65
2017-11-10T06:25:45.760Z,1009.67
2017-11-10T06:26:45.774Z,1009.62
2017-11-10T06:28:45.815Z,1009.61
2017-11-10T06:29:45.833Z,1009.63
2017-11-10T06:30:45.849Z,1009.67
2017-11-10T06:31:45.865Z,1009.65
2017-11-10T06:32:45.885Z,1009.65
2017-11-10T06:33:45.908Z,1009.57
2017-11-10T06:34:45.917Z,1009.59
2017-11-10T06:35:45.945Z,1009.6
2017-11-10T06:36:45.954Z,1009.55
2017-11-10T06:37:45.974Z,1009.6
2017-11-10T06:38:45.993Z,1009.56
2017-11-10T06:39:46.012Z,1009.51
2017-11-10T06:40:46.034Z,1009.51
2017-11-10T06:41:46.045Z,1009.51
2017-11-10T06:43:46.081Z,1009.48
2017-11-10T06:44:46.099Z,1009.48
2017-11-10T06:45:46.121Z,1009.44
2017-11-10T06:46:46.142Z,1009.43
2017-11-10T06:47:46.163Z,1009.41
2017-11-10T06:48:46.173Z,1009.43
2017-11-10T06:49:46.192Z,1009.4
2017-11-10T06:50:46.207Z,1009.37
2017-11-10T06:51:46.224Z,1009.39
2017-11-10T06:52:46.245Z,1009.39
2017-11-10T06:53:46.265Z,1009.36
2017-11-10T06:54:46.283Z,1009.41
2017-11-10T06:55:46.296Z,1009.39
2017-11-10T06:56:46.314Z,1009.4
2017-11-10T06:57:46.334Z,1009.38
2017-11-10T06:58:46.355Z,1009.4
2017-11-10T06:59:46.369Z,1009.38
2017-11-10T07:00:46.389Z,1009.37
2017-11-10T07:01:46.405Z,1009.38
2017-11-10T07:02:46.425Z,1009.36
2017-11-10T07:03:46.444Z,1009.36
2017-11-10T07:04:46.459Z,1009.37
2017-11-10T07:05:46.481Z,1009.34
2017-11-10T07:06:46.494Z,1009.3
2017-11-10T07:07:46.513Z,1009.33
2017-11-10T07:08:46.534Z,1009.27
2017-11-10T07:09:46.550Z,1009.27
2017-11-10T07:10:46.571Z,1009.22
2017-11-10T07:11:46.585Z,1009.15
2017-11-10T07:12:46.603Z,1009.15
2017-11-10T07:13:46.622Z,1009.15
2017-11-10T07:15:46.657Z,1009.17
2017-11-10T07:16:47.345Z,1009.19
2017-11-10T07:17:46.694Z,1009.18
2017-11-10T07:18:46.715Z,1009.15
2017-11-10T07:19:46.734Z,1009.14
2017-11-10T07:20:46.750Z,1009.19
2017-11-10T07:21:46.812Z,1009.16
2017-11-10T07:22:46.784Z,1009.19
2017-11-10T07:23:46.813Z,1009.19
2017-11-10T07:24:46.819Z,1009.17
2017-11-10T07:25:46.838Z,1009.16
2017-11-10T07:26:46.860Z,1009.11
2017-11-10T07:27:46.875Z,1009.15
2017-11-10T07:28:46.893Z,1009.08
2017-11-10T07:29:46.914Z,1009.12
2017-11-10T07:31:46.956Z,1009.1
2017-11-10T07:32:46.965Z,1009.11
2017-11-10T07:33:46.986Z,1009.09
2017-11-10T07:34:47.004Z,1009.12
2017-11-10T07:35:47.028Z,1009.09
2017-11-10T07:36:47.041Z,1009.14
2017-11-10T07:37:47.056Z,1009.1
2017-11-10T07:38:47.074Z,1009.12
2017-11-10T07:39:47.094Z,1009.12
2017-11-10T07:40:47.113Z,1009.05
2017-11-10T07:41:47.137Z,1009.07
2017-11-10T07:42:47.147Z,1009.09
2017-11-10T07:43:47.164Z,1009.03
2017-11-10T07:44:47.183Z,1008.97
2017-11-10T07:45:47.206Z,1008.98
2017-11-10T07:47:47.247Z,1008.95
2017-11-10T07:48:47.265Z,1008.96
2017-11-10T07:49:47.276Z,1008.94
2017-11-10T07:50:47.292Z,1008.96
2017-11-10T07:51:47.313Z,1008.95
2017-11-10T07:52:47.333Z,1008.92
2017-11-10T07:53:47.347Z,1008.96
2017-11-10T07:54:47.365Z,1008.88
2017-11-10T07:55:47.386Z,1008.94
2017-11-10T07:56:47.406Z,1008.89
2017-11-10T07:57:47.423Z,1008.91
2017-11-10T07:58:47.441Z,1008.89
2017-11-10T07:59:47.461Z,1008.86
2017-11-10T08:00:47.477Z,1008.9
2017-11-10T08:01:47.495Z,1008.86
2017-11-10T08:03:47.534Z,1008.9
2017-11-10T08:04:47.548Z,1008.81
2017-11-10T08:05:47.569Z,1008.83
2017-11-10T08:06:47.590Z,1008.83
2017-11-10T08:07:47.604Z,1008.78
2017-11-10T08:08:47.621Z,1008.86
2017-11-10T08:09:47.642Z,1008.82
2017-11-10T08:10:47.657Z,1008.72
2017-11-10T08:11:47.680Z,1008.73
2017-11-10T08:12:47.696Z,1008.67
2017-11-10T08:13:47.714Z,1008.64
2017-11-10T08:14:47.731Z,1008.63
2017-11-10T08:15:47.752Z,1008.6
2017-11-10T08:16:47.773Z,1008.58
2017-11-10T08:18:47.809Z,1008.48
2017-11-10T08:19:47.822Z,1008.47
2017-11-10T08:20:47.844Z,1008.34
2017-11-10T08:21:47.863Z,1008.36
2017-11-10T08:22:47.882Z,1008.32
2017-11-10T08:23:47.899Z,1008.31
2017-11-10T08:24:47.916Z,1008.28
2017-11-10T08:25:47.935Z,1008.26
2017-11-10T08:26:47.951Z,1008.22
2017-11-10T08:27:47.969Z,1008.25
2017-11-10T08:28:47.990Z,1008.2
2017-11-10T08:29:48.014Z,1008.26
2017-11-10T08:30:48.025Z,1008.22
2017-11-10T08:31:48.050Z,1008.23
2017-11-10T08:32:48.067Z,1008.18
2017-11-10T08:33:48.082Z,1008.13
2017-11-10T08:34:48.101Z,1008.21
2017-11-10T08:35:48.116Z,1008.2
2017-11-10T08:36:48.137Z,1008.19
2017-11-10T08:37:48.152Z,1008.17
2017-11-10T08:38:48.174Z,1008.18
2017-11-10T08:39:48.193Z,1008.16
2017-11-10T08:40:48.212Z,1008.17
2017-11-10T08:41:48.229Z,1008.14
2017-11-10T08:42:48.248Z,1008.13
2017-11-10T08:43:48.265Z,1008.13
2017-11-10T08:44:48.284Z,1008.14
2017-11-10T08:45:48.301Z,1007.99
2017-11-10T08:46:48.323Z,1008.02
2017-11-10T08:47:48.339Z,1007.99
2017-11-10T08:48:48.356Z,1007.94
2017-11-10T08:50:48.397Z,1007.9
2017-11-10T08:51:48.419Z,1007.91
2017-11-10T08:52:48.434Z,1007.86
2017-11-10T08:53:48.452Z,1007.83
2017-11-10T08:54:48.468Z,1007.75
2017-11-10T08:55:48.489Z,1007.72
2017-11-10T08:56:48.504Z,1007.63
2017-11-10T08:57:48.526Z,1007.65
2017-11-10T08:58:48.543Z,1007.6
2017-11-10T08:59:48.559Z,1007.6
2017-11-10T09:00:48.577Z,1007.53
2017-11-10T09:01:48.598Z,1007.52
2017-11-10T09:02:48.619Z,1007.45
2017-11-10T09:03:48.637Z,1007.48
2017-11-10T09:04:48.653Z,1007.42
2017-11-10T09:06:48.694Z,1007.43
2017-11-10T09:07:48.709Z,1007.36
2017-11-10T09:08:48.735Z,1007.41
2017-11-10T09:09:48.748Z,1007.39
2017-11-10T09:10:48.787Z,1007.39
2017-11-10T09:11:48.786Z,1007.36
2017-11-10T09:12:48.804Z,1007.39
2017-11-10T09:13:48.825Z,1007.38
2017-11-10T09:14:48.841Z,1007.35
2017-11-10T09:15:48.860Z,1007.35
2017-11-10T09:16:48.878Z,1007.31
2017-11-10T09:17:48.896Z,1007.32
2017-11-10T09:18:48.916Z,1007.3
2017-11-10T09:19:48.932Z,1007.3
2017-11-10T09:20:48.954Z,1007.26
2017-11-10T09:22:48.996Z,1007.23
2017-11-10T09:23:49.010Z,1007.22
2017-11-10T09:24:49.024Z,1007.24
2017-11-10T09:25:49.045Z,1007.18
2017-11-10T09:26:49.061Z,1007.23
2017-11-10T09:27:49.081Z,1007.17
2017-11-10T09:28:49.105Z,1007.19
2017-11-10T09:29:49.129Z,1007.16
2017-11-10T09:30:49.138Z,1007.16
2017-11-10T09:31:49.155Z,1007.19
2017-11-10T09:32:49.176Z,1007.22
2017-11-10T09:33:49.199Z,1007.17
2017-11-10T09:34:49.210Z,1007.16
2017-11-10T09:35:49.232Z,1007.22
2017-11-10T09:36:49.250Z,1007.18
2017-11-10T09:38:49.289Z,1007.19
2017-11-10T09:39:49.314Z,1007.14
2017-11-10T09:40:49.321Z,1007.13
2017-11-10T09:41:49.342Z,1007.12
2017-11-10T09:42:49.362Z,1007.13
2017-11-10T09:43:49.378Z,1007.13
2017-11-10T09:44:49.394Z,1007.14
2017-11-10T09:45:49.414Z,1007.13
2017-11-10T09:46:49.433Z,1007.19
2017-11-10T09:47:49.452Z,1007.2
2017-11-10T09:48:49.469Z,1007.2
2017-11-10T09:49:49.492Z,1007.2
2017-11-10T09:50:49.506Z,1007.2
2017-11-10T09:51:49.525Z,1007.1
2017-11-10T09:53:49.564Z,1007.09
2017-11-10T09:54:49.588Z,1006.98
2017-11-10T09:55:49.604Z,1007.05
2017-11-10T09:56:49.619Z,1007.06
2017-11-10T09:57:49.641Z,1006.97
2017-11-10T09:58:49.656Z,1006.98
2017-11-10T09:59:49.676Z,1006.99
2017-11-10T10:00:49.693Z,1007.05
2017-11-10T10:01:49.710Z,1006.97
2017-11-10T10:02:49.737Z,1006.92
2017-11-10T10:03:49.749Z,1006.92
2017-11-10T10:04:49.770Z,1006.88
2017-11-10T10:05:49.789Z,1006.93
2017-11-10T10:06:49.804Z,1006.88
2017-11-10T10:07:49.823Z,1006.87
2017-11-10T10:08:49.839Z,1006.82
2017-11-10T10:09:49.859Z,1006.81
2017-11-10T10:10:49.877Z,1006.78
2017-11-10T10:11:49.897Z,1006.69
2017-11-10T10:12:49.915Z,1006.68
2017-11-10T10:13:49.935Z,1006.69
2017-11-10T10:14:49.955Z,1006.68
2017-11-10T10:15:49.973Z,1006.65
2017-11-10T10:16:49.990Z,1006.66
2017-11-10T10:17:50.010Z,1006.66
2017-11-10T10:18:50.027Z,1006.57
2017-11-10T10:19:50.044Z,1006.59
2017-11-10T10:20:50.062Z,1006.59
2017-11-10T10:21:50.083Z,1006.54
2017-11-10T10:22:50.101Z,1006.5
2017-11-10T10:23:50.118Z,1006.52
2017-11-10T10:25:50.154Z,1006.44
2017-11-10T10:26:50.180Z,1006.49
2017-11-10T10:27:50.192Z,1006.37
2017-11-10T10:28:50.212Z,1006.36
2017-11-10T10:29:50.229Z,1006.3
2017-11-10T10:30:50.245Z,1006.25
2017-11-10T10:31:50.267Z,1006.3
2017-11-10T10:32:50.282Z,1006.28
2017-11-10T10:33:50.312Z,1006.26
2017-11-10T10:34:50.320Z,1006.26
2017-11-10T10:35:50.340Z,1006.2
2017-11-10T10:36:50.358Z,1006.23
2017-11-10T10:37:50.378Z,1006.2
2017-11-10T10:38:50.400Z,1006.16
2017-11-10T10:39:50.414Z,1006.22
2017-11-10T10:41:50.451Z,1006.11
2017-11-10T10:42:50.466Z,1006.17
2017-11-10T10:43:50.487Z,1006.09
2017-11-10T10:44:50.507Z,1006.02
2017-11-10T10:45:50.524Z,1006.06
2017-11-10T10:46:50.543Z,1006.04
2017-11-10T10:47:50.563Z,1005.96
2017-11-10T10:48:50.577Z,1005.96
2017-11-10T10:49:50.597Z,1005.94
2017-11-10T10:50:50.616Z,1005.94
2017-11-10T10:51:50.636Z,1005.82
2017-11-10T10:52:50.654Z,1005.83
2017-11-10T10:53:50.672Z,1005.81
2017-11-10T10:54:50.692Z,1005.8
2017-11-10T10:55:50.708Z,1005.79
2017-11-10T10:57:50.748Z,1005.72
2017-11-10T10:58:50.768Z,1005.71
2017-11-10T10:59:50.784Z,1005.7
2017-11-10T11:00:50.803Z,1005.61
2017-11-10T11:01:50.823Z,1005.68
2017-11-10T11:02:50.840Z,1005.67
2017-11-10T11:03:50.861Z,1005.6
2017-11-10T11:04:50.878Z,1005.58
2017-11-10T11:05:50.898Z,1005.59
2017-11-10T11:06:50.912Z,1005.45
2017-11-10T11:07:50.929Z,1005.53
2017-11-10T11:08:50.951Z,1005.52
2017-11-10T11:09:50.968Z,1005.47
2017-11-10T11:10:51.013Z,1005.44
2017-11-10T11:11:51.010Z,1005.34
2017-11-10T11:13:51.047Z,1005.36
2017-11-10T11:14:51.062Z,1005.29
2017-11-10T11:15:51.080Z,1005.31
2017-11-10T11:16:51.104Z,1005.22
2017-11-10T11:17:51.123Z,1005.19
2017-11-10T11:18:51.144Z,1005.21
2017-11-10T11:19:51.158Z,1005.23
2017-11-10T11:20:51.179Z,1005.14
2017-11-10T11:21:51.198Z,1005.25
2017-11-10T11:22:51.213Z,1005.2
2017-11-10T11:23:51.234Z,1005.1
2017-11-10T11:24:51.251Z,1005.1
2017-11-10T11:25:51.277Z,1005.1
2017-11-10T11:26:51.291Z,1005.08
2017-11-10T11:28:51.332Z,1005.1
2017-11-10T11:29:51.346Z,1005.02
2017-11-10T11:30:51.368Z,1004.94
2017-11-10T11:31:51.396Z,1005.01
2017-11-10T11:32:51.408Z,1005.02
2017-11-10T11:33:51.423Z,1004.96
2017-11-10T11:34:51.441Z,1004.98
2017-11-10T11:35:51.464Z,1004.92
2017-11-10T11:36:51.479Z,1004.86
2017-11-10T11:37:51.500Z,1004.87
2017-11-10T11:38:51.521Z,1004.85
2017-11-10T11:39:51.541Z,1004.86
2017-11-10T11:40:51.555Z,1004.81
2017-11-10T11:41:51.577Z,1004.81
2017-11-10T11:42:51.595Z,1004.78
2017-11-10T11:43:51.620Z,1004.77
2017-11-10T11:44:51.635Z,1004.75
2017-11-10T11:45:51.651Z,1004.71
2017-11-10T11:46:51.670Z,1004.69
2017-11-10T11:47:51.690Z,1004.66
2017-11-10T11:48:51.709Z,1004.64
2017-11-10T11:49:51.729Z,1004.64
2017-11-10T11:50:51.749Z,1004.63
2017-11-10T11:51:51.765Z,1004.61
2017-11-10T11:52:51.783Z,1004.59
2017-11-10T11:53:51.803Z,1004.6
2017-11-10T11:54:51.822Z,1004.58
2017-11-10T11:55:51.844Z,1004.59
2017-11-10T11:56:51.862Z,1004.57
2017-11-10T11:57:51.881Z,1004.55
2017-11-10T11:58:51.898Z,1004.54
2017-11-10T12:00:51.945Z,1004.48
2017-11-10T12:01:51.959Z,1004.47
2017-11-10T12:02:51.976Z,1004.45
2017-11-10T12:03:51.994Z,1004.41
2017-11-10T12:04:52.016Z,1004.36
2017-11-10T12:05:52.035Z,1004.34
2017-11-10T12:06:52.053Z,1004.36
2017-11-10T12:07:52.073Z,1004.32
2017-11-10T12:08:52.088Z,1004.33
2017-11-10T12:09:52.107Z,1004.32
2017-11-10T12:10:52.129Z,1004.34
2017-11-10T12:11:52.145Z,1004.33
2017-11-10T12:12:52.167Z,1004.27
2017-11-10T12:13:52.187Z,1004.25
2017-11-10T12:14:52.203Z,1004.24
2017-11-10T12:16:52.240Z,1004.15
2017-11-10T12:17:52.299Z,1004.08
2017-11-10T12:18:52.277Z,1004.1
2017-11-10T12:19:52.304Z,1004.07
2017-11-10T12:20:52.330Z,1004.07
2017-11-10T12:21:52.335Z,1004.02
2017-11-10T12:22:52.356Z,1004.02
2017-11-10T12:23:52.578Z,1003.97
2017-11-10T12:24:52.392Z,1003.95
2017-11-10T12:25:52.414Z,1003.97
2017-11-10T12:26:52.432Z,1003.96
2017-11-10T12:27:52.448Z,1004.02
2017-11-10T12:28:52.468Z,1004.03
2017-11-10T12:29:52.490Z,1003.99
2017-11-10T12:30:52.509Z,1004.05
2017-11-10T12:32:52.546Z,1003.83
2017-11-10T12:33:52.568Z,1003.86
2017-11-10T12:34:52.583Z,1003.81
2017-11-10T12:35:52.603Z,1003.86
2017-11-10T12:36:52.620Z,1003.86
2017-11-10T12:37:52.639Z,1003.8
2017-11-10T12:38:52.659Z,1003.77
2017-11-10T12:39:52.677Z,1003.73
2017-11-10T12:40:52.696Z,1003.77
2017-11-10T12:41:52.716Z,1003.74
2017-11-10T12:42:52.729Z,1003.73
2017-11-10T12:43:52.749Z,1003.71
2017-11-10T12:44:52.769Z,1003.72
2017-11-10T12:45:52.789Z,1003.66
2017-11-10T12:46:52.807Z,1003.59
2017-11-10T12:48:52.845Z,1003.63
2017-11-10T12:49:52.866Z,1003.55